sensor_id;sensor_type;location;lat;lon;timestamp;P1;durP1;ratioP1;P2;durP2;ratioP2
70073;SDS011;57445;51.058;3.698;2023-03-31T00:00:27;14.77;;;3.33;;
70073;SDS011;57445;51.058;3.698;2023-03-31T00:02:55;17.25;;;4.13;;
70073;SDS011;57445;51.058;3.698;2023-03-31T00:05:28;16.85;;;3.42;;
70073;SDS011;57445;51.058;3.698;2023-03-31T00:07:58;20.42;;;3.50;;
70073;SDS011;57445;51.058;3.698;2023-03-31T00:10:33;15.00;;;3.47;;
70073;SDS011;57445;51.058;3.698;2023-03-31T00:13:05;19.15;;;3.72;;
70073;SDS011;57445;51.058;3.698;2023-03-31T00:15:38;22.30;;;3.95;;
70073;SDS011;57445;51.058;3.698;2023-03-31T00:18:11;21.23;;;4.10;;
70073;SDS011;57445;51.058;3.698;2023-03-31T00:20:43;19.88;;;3.42;;
70073;SDS011;57445;51.058;3.698;2023-03-31T00:23:11;14.70;;;3.40;;
70073;SDS011;57445;51.058;3.698;2023-03-31T00:25:43;15.40;;;3.28;;
70073;SDS011;57445;51.058;3.698;2023-03-31T00:28:16;18.50;;;3.60;;
70073;SDS011;57445;51.058;3.698;2023-03-31T00:30:49;15.25;;;3.53;;
70073;SDS011;57445;51.058;3.698;2023-03-31T00:33:22;15.38;;;3.25;;
70073;SDS011;57445;51.058;3.698;2023-03-31T00:35:51;12.98;;;3.50;;
70073;SDS011;57445;51.058;3.698;2023-03-31T00:38:24;17.33;;;3.53;;
70073;SDS011;57445;51.058;3.698;2023-03-31T00:40:58;17.13;;;3.10;;
70073;SDS011;57445;51.058;3.698;2023-03-31T00:43:31;15.07;;;3.70;;
70073;SDS011;57445;51.058;3.698;2023-03-31T00:46:06;13.93;;;3.13;;
70073;SDS011;57445;51.058;3.698;2023-03-31T00:48:47;16.55;;;3.20;;
70073;SDS011;57445;51.058;3.698;2023-03-31T00:51:21;14.48;;;3.40;;
70073;SDS011;57445;51.058;3.698;2023-03-31T00:53:55;18.40;;;4.00;;
70073;SDS011;57445;51.058;3.698;2023-03-31T00:56:32;16.07;;;3.50;;
70073;SDS011;57445;51.058;3.698;2023-03-31T00:59:04;17.65;;;3.60;;
70073;SDS011;57445;51.058;3.698;2023-03-31T01:01:43;16.13;;;3.38;;
70073;SDS011;57445;51.058;3.698;2023-03-31T01:04:15;14.57;;;3.63;;
70073;SDS011;57445;51.058;3.698;2023-03-31T01:06:53;14.32;;;3.35;;
70073;SDS011;57445;51.058;3.698;2023-03-31T01:09:30;15.43;;;2.92;;
70073;SDS011;57445;51.058;3.698;2023-03-31T01:12:05;15.82;;;3.05;;
70073;SDS011;57445;51.058;3.698;2023-03-31T01:14:41;14.23;;;3.43;;
70073;SDS011;57445;51.058;3.698;2023-03-31T01:17:14;12.50;;;2.75;;
70073;SDS011;57445;51.058;3.698;2023-03-31T01:19:51;14.48;;;3.08;;
70073;SDS011;57445;51.058;3.698;2023-03-31T01:22:44;19.27;;;3.22;;
70073;SDS011;57445;51.058;3.698;2023-03-31T01:25:54;12.73;;;2.90;;
70073;SDS011;57445;51.058;3.698;2023-03-31T01:28:46;11.77;;;3.60;;
70073;SDS011;57445;51.058;3.698;2023-03-31T01:34:53;12.38;;;2.80;;
70073;SDS011;57445;51.058;3.698;2023-03-31T01:40:45;13.57;;;2.90;;
70073;SDS011;57445;51.058;3.698;2023-03-31T01:43:25;12.02;;;2.88;;
70073;SDS011;57445;51.058;3.698;2023-03-31T01:45:59;11.80;;;2.97;;
70073;SDS011;57445;51.058;3.698;2023-03-31T01:48:34;14.07;;;2.55;;
70073;SDS011;57445;51.058;3.698;2023-03-31T01:51:18;12.60;;;2.78;;
70073;SDS011;57445;51.058;3.698;2023-03-31T01:53:59;12.52;;;2.60;;
70073;SDS011;57445;51.058;3.698;2023-03-31T01:56:38;12.77;;;3.17;;
70073;SDS011;57445;51.058;3.698;2023-03-31T01:59:10;12.63;;;2.80;;
70073;SDS011;57445;51.058;3.698;2023-03-31T02:01:41;9.75;;;3.08;;
70073;SDS011;57445;51.058;3.698;2023-03-31T02:04:21;16.38;;;3.60;;
70073;SDS011;57445;51.058;3.698;2023-03-31T02:06:54;14.50;;;2.85;;
70073;SDS011;57445;51.058;3.698;2023-03-31T02:09:30;10.60;;;2.90;;
70073;SDS011;57445;51.058;3.698;2023-03-31T02:12:07;14.70;;;3.13;;
70073;SDS011;57445;51.058;3.698;2023-03-31T02:14:42;12.40;;;3.30;;
70073;SDS011;57445;51.058;3.698;2023-03-31T02:17:14;12.32;;;2.88;;
70073;SDS011;57445;51.058;3.698;2023-03-31T02:19:49;12.73;;;3.05;;
70073;SDS011;57445;51.058;3.698;2023-03-31T02:22:18;11.20;;;2.80;;
70073;SDS011;57445;51.058;3.698;2023-03-31T02:24:53;9.73;;;2.67;;
70073;SDS011;57445;51.058;3.698;2023-03-31T02:27:23;13.40;;;2.78;;
70073;SDS011;57445;51.058;3.698;2023-03-31T02:29:54;11.68;;;2.80;;
70073;SDS011;57445;51.058;3.698;2023-03-31T02:32:28;11.75;;;2.92;;
70073;SDS011;57445;51.058;3.698;2023-03-31T02:35:03;11.10;;;2.88;;
70073;SDS011;57445;51.058;3.698;2023-03-31T02:37:36;12.38;;;2.75;;
70073;SDS011;57445;51.058;3.698;2023-03-31T02:40:11;10.50;;;2.33;;
70073;SDS011;57445;51.058;3.698;2023-03-31T02:42:44;12.98;;;2.85;;
70073;SDS011;57445;51.058;3.698;2023-03-31T02:45:37;10.45;;;2.88;;
70073;SDS011;57445;51.058;3.698;2023-03-31T02:48:14;9.38;;;2.50;;
70073;SDS011;57445;51.058;3.698;2023-03-31T02:50:59;7.18;;;2.20;;
70073;SDS011;57445;51.058;3.698;2023-03-31T02:53:42;11.00;;;1.95;;
70073;SDS011;57445;51.058;3.698;2023-03-31T02:56:24;9.10;;;2.00;;
70073;SDS011;57445;51.058;3.698;2023-03-31T02:59:15;8.98;;;1.83;;
70073;SDS011;57445;51.058;3.698;2023-03-31T03:02:05;5.28;;;1.50;;
70073;SDS011;57445;51.058;3.698;2023-03-31T03:04:48;6.57;;;1.65;;
70073;SDS011;57445;51.058;3.698;2023-03-31T03:07:33;6.05;;;1.50;;
70073;SDS011;57445;51.058;3.698;2023-03-31T03:10:09;5.45;;;1.33;;
70073;SDS011;57445;51.058;3.698;2023-03-31T03:12:48;6.30;;;1.30;;
70073;SDS011;57445;51.058;3.698;2023-03-31T03:15:25;2.58;;;1.10;;
70073;SDS011;57445;51.058;3.698;2023-03-31T03:18:02;5.95;;;1.48;;
70073;SDS011;57445;51.058;3.698;2023-03-31T03:20:36;5.22;;;1.13;;
70073;SDS011;57445;51.058;3.698;2023-03-31T03:23:05;5.50;;;1.20;;
70073;SDS011;57445;51.058;3.698;2023-03-31T03:25:37;2.85;;;1.10;;
70073;SDS011;57445;51.058;3.698;2023-03-31T03:28:09;3.60;;;0.90;;
70073;SDS011;57445;51.058;3.698;2023-03-31T03:30:43;3.45;;;0.90;;
70073;SDS011;57445;51.058;3.698;2023-03-31T03:33:10;2.50;;;0.77;;
70073;SDS011;57445;51.058;3.698;2023-03-31T03:35:46;3.40;;;0.82;;
70073;SDS011;57445;51.058;3.698;2023-03-31T03:38:14;5.30;;;1.13;;
70073;SDS011;57445;51.058;3.698;2023-03-31T03:40:46;4.15;;;1.13;;
70073;SDS011;57445;51.058;3.698;2023-03-31T03:43:18;3.08;;;1.00;;
70073;SDS011;57445;51.058;3.698;2023-03-31T03:45:47;3.50;;;1.00;;
70073;SDS011;57445;51.058;3.698;2023-03-31T03:48:15;2.35;;;0.60;;
70073;SDS011;57445;51.058;3.698;2023-03-31T03:50:48;2.58;;;0.70;;
70073;SDS011;57445;51.058;3.698;2023-03-31T03:53:22;4.15;;;0.82;;
70073;SDS011;57445;51.058;3.698;2023-03-31T03:55:49;5.80;;;1.13;;
70073;SDS011;57445;51.058;3.698;2023-03-31T03:58:17;2.15;;;0.52;;
70073;SDS011;57445;51.058;3.698;2023-03-31T04:00:45;2.17;;;0.65;;
70073;SDS011;57445;51.058;3.698;2023-03-31T04:03:14;2.10;;;0.73;;
70073;SDS011;57445;51.058;3.698;2023-03-31T04:05:47;1.88;;;0.85;;
70073;SDS011;57445;51.058;3.698;2023-03-31T04:08:20;2.85;;;0.70;;
70073;SDS011;57445;51.058;3.698;2023-03-31T04:10:48;2.50;;;0.90;;
70073;SDS011;57445;51.058;3.698;2023-03-31T04:13:16;5.22;;;1.10;;
70073;SDS011;57445;51.058;3.698;2023-03-31T04:15:44;4.72;;;1.02;;
70073;SDS011;57445;51.058;3.698;2023-03-31T04:18:18;4.05;;;1.25;;
70073;SDS011;57445;51.058;3.698;2023-03-31T04:20:48;3.25;;;1.00;;
70073;SDS011;57445;51.058;3.698;2023-03-31T04:23:20;3.97;;;0.82;;
70073;SDS011;57445;51.058;3.698;2023-03-31T04:25:56;4.13;;;1.10;;
70073;SDS011;57445;51.058;3.698;2023-03-31T04:28:28;3.70;;;0.88;;
70073;SDS011;57445;51.058;3.698;2023-03-31T04:30:59;3.58;;;1.15;;
70073;SDS011;57445;51.058;3.698;2023-03-31T04:33:28;2.80;;;0.98;;
70073;SDS011;57445;51.058;3.698;2023-03-31T04:36:03;4.10;;;1.20;;
70073;SDS011;57445;51.058;3.698;2023-03-31T04:38:36;4.75;;;0.95;;
70073;SDS011;57445;51.058;3.698;2023-03-31T04:41:09;4.78;;;1.17;;
70073;SDS011;57445;51.058;3.698;2023-03-31T04:43:41;4.22;;;1.30;;
70073;SDS011;57445;51.058;3.698;2023-03-31T04:46:14;3.20;;;1.10;;
70073;SDS011;57445;51.058;3.698;2023-03-31T04:48:47;5.80;;;1.20;;
70073;SDS011;57445;51.058;3.698;2023-03-31T04:51:19;3.80;;;1.05;;
70073;SDS011;57445;51.058;3.698;2023-03-31T04:53:47;5.60;;;1.40;;
70073;SDS011;57445;51.058;3.698;2023-03-31T04:56:19;9.15;;;2.03;;
70073;SDS011;57445;51.058;3.698;2023-03-31T04:58:52;7.72;;;2.00;;
70073;SDS011;57445;51.058;3.698;2023-03-31T05:01:24;6.03;;;1.92;;
70073;SDS011;57445;51.058;3.698;2023-03-31T05:03:53;8.85;;;1.98;;
70073;SDS011;57445;51.058;3.698;2023-03-31T05:06:20;9.45;;;2.10;;
70073;SDS011;57445;51.058;3.698;2023-03-31T05:08:48;7.00;;;1.85;;
70073;SDS011;57445;51.058;3.698;2023-03-31T05:11:15;11.07;;;2.80;;
70073;SDS011;57445;51.058;3.698;2023-03-31T05:13:48;8.45;;;2.20;;
70073;SDS011;57445;51.058;3.698;2023-03-31T05:16:15;10.18;;;2.13;;
70073;SDS011;57445;51.058;3.698;2023-03-31T05:18:43;11.63;;;2.70;;
70073;SDS011;57445;51.058;3.698;2023-03-31T05:21:13;12.13;;;2.83;;
70073;SDS011;57445;51.058;3.698;2023-03-31T05:23:43;9.68;;;2.85;;
70073;SDS011;57445;51.058;3.698;2023-03-31T05:26:10;10.50;;;2.95;;
70073;SDS011;57445;51.058;3.698;2023-03-31T05:28:39;12.13;;;2.83;;
70073;SDS011;57445;51.058;3.698;2023-03-31T05:31:12;16.33;;;3.15;;
70073;SDS011;57445;51.058;3.698;2023-03-31T05:33:40;12.65;;;3.10;;
70073;SDS011;57445;51.058;3.698;2023-03-31T05:36:15;14.27;;;4.03;;
70073;SDS011;57445;51.058;3.698;2023-03-31T05:38:47;13.43;;;3.63;;
70073;SDS011;57445;51.058;3.698;2023-03-31T05:41:21;16.17;;;2.75;;
70073;SDS011;57445;51.058;3.698;2023-03-31T05:43:49;12.13;;;3.67;;
70073;SDS011;57445;51.058;3.698;2023-03-31T05:46:16;13.35;;;2.95;;
70073;SDS011;57445;51.058;3.698;2023-03-31T05:48:44;17.10;;;3.67;;
70073;SDS011;57445;51.058;3.698;2023-03-31T05:51:18;15.75;;;2.95;;
70073;SDS011;57445;51.058;3.698;2023-03-31T05:53:51;13.63;;;2.97;;
70073;SDS011;57445;51.058;3.698;2023-03-31T05:56:18;16.73;;;3.67;;
70073;SDS011;57445;51.058;3.698;2023-03-31T05:58:51;15.95;;;3.60;;
70073;SDS011;57445;51.058;3.698;2023-03-31T06:01:19;15.32;;;3.70;;
70073;SDS011;57445;51.058;3.698;2023-03-31T06:03:48;18.52;;;3.60;;
70073;SDS011;57445;51.058;3.698;2023-03-31T06:06:18;14.63;;;3.20;;
70073;SDS011;57445;51.058;3.698;2023-03-31T06:08:50;13.20;;;3.08;;
70073;SDS011;57445;51.058;3.698;2023-03-31T06:11:19;12.75;;;3.13;;
70073;SDS011;57445;51.058;3.698;2023-03-31T06:13:48;16.63;;;3.70;;
70073;SDS011;57445;51.058;3.698;2023-03-31T06:16:17;13.70;;;3.42;;
70073;SDS011;57445;51.058;3.698;2023-03-31T06:18:49;14.73;;;4.20;;
70073;SDS011;57445;51.058;3.698;2023-03-31T06:21:19;13.80;;;3.75;;
70073;SDS011;57445;51.058;3.698;2023-03-31T06:23:51;13.95;;;3.28;;
70073;SDS011;57445;51.058;3.698;2023-03-31T06:26:25;17.80;;;4.13;;
70073;SDS011;57445;51.058;3.698;2023-03-31T06:28:53;14.38;;;3.38;;
70073;SDS011;57445;51.058;3.698;2023-03-31T06:31:21;17.15;;;3.92;;
70073;SDS011;57445;51.058;3.698;2023-03-31T06:33:50;18.15;;;3.60;;
70073;SDS011;57445;51.058;3.698;2023-03-31T06:36:20;17.25;;;3.80;;
70073;SDS011;57445;51.058;3.698;2023-03-31T06:38:53;18.85;;;3.70;;
70073;SDS011;57445;51.058;3.698;2023-03-31T06:41:25;18.98;;;4.43;;
70073;SDS011;57445;51.058;3.698;2023-03-31T06:43:57;18.10;;;3.97;;
70073;SDS011;57445;51.058;3.698;2023-03-31T06:46:29;18.25;;;3.53;;
70073;SDS011;57445;51.058;3.698;2023-03-31T06:48:57;21.50;;;3.88;;
70073;SDS011;57445;51.058;3.698;2023-03-31T06:51:30;14.68;;;3.65;;
70073;SDS011;57445;51.058;3.698;2023-03-31T06:54:02;20.13;;;4.78;;
70073;SDS011;57445;51.058;3.698;2023-03-31T06:56:35;21.45;;;4.22;;
70073;SDS011;57445;51.058;3.698;2023-03-31T06:59:07;23.65;;;5.03;;
70073;SDS011;57445;51.058;3.698;2023-03-31T07:01:35;18.83;;;4.10;;
70073;SDS011;57445;51.058;3.698;2023-03-31T07:04:08;19.60;;;3.90;;
70073;SDS011;57445;51.058;3.698;2023-03-31T07:06:41;21.80;;;4.10;;
70073;SDS011;57445;51.058;3.698;2023-03-31T07:09:09;17.13;;;4.18;;
70073;SDS011;57445;51.058;3.698;2023-03-31T07:11:37;16.60;;;3.88;;
70073;SDS011;57445;51.058;3.698;2023-03-31T07:14:09;15.20;;;4.07;;
70073;SDS011;57445;51.058;3.698;2023-03-31T07:16:37;16.17;;;3.33;;
70073;SDS011;57445;51.058;3.698;2023-03-31T07:19:09;22.10;;;4.72;;
70073;SDS011;57445;51.058;3.698;2023-03-31T07:21:42;20.33;;;4.40;;
70073;SDS011;57445;51.058;3.698;2023-03-31T07:24:15;19.13;;;4.35;;
70073;SDS011;57445;51.058;3.698;2023-03-31T07:26:48;17.13;;;4.55;;
70073;SDS011;57445;51.058;3.698;2023-03-31T07:29:20;18.15;;;4.40;;
70073;SDS011;57445;51.058;3.698;2023-03-31T07:31:52;15.77;;;4.18;;
70073;SDS011;57445;51.058;3.698;2023-03-31T07:34:20;16.55;;;4.32;;
70073;SDS011;57445;51.058;3.698;2023-03-31T07:36:55;17.45;;;5.07;;
70073;SDS011;57445;51.058;3.698;2023-03-31T07:39:27;16.30;;;3.83;;
70073;SDS011;57445;51.058;3.698;2023-03-31T07:41:59;20.60;;;4.30;;
70073;SDS011;57445;51.058;3.698;2023-03-31T07:44:31;22.65;;;4.40;;
70073;SDS011;57445;51.058;3.698;2023-03-31T07:47:04;20.40;;;4.80;;
70073;SDS011;57445;51.058;3.698;2023-03-31T07:49:36;18.38;;;3.90;;
70073;SDS011;57445;51.058;3.698;2023-03-31T07:52:09;23.63;;;4.60;;
70073;SDS011;57445;51.058;3.698;2023-03-31T07:54:41;21.85;;;4.53;;
70073;SDS011;57445;51.058;3.698;2023-03-31T07:57:09;15.73;;;4.28;;
70073;SDS011;57445;51.058;3.698;2023-03-31T07:59:41;22.95;;;4.50;;
70073;SDS011;57445;51.058;3.698;2023-03-31T08:02:09;18.73;;;3.63;;
70073;SDS011;57445;51.058;3.698;2023-03-31T08:04:38;16.50;;;3.45;;
70073;SDS011;57445;51.058;3.698;2023-03-31T08:07:13;15.63;;;3.85;;
70073;SDS011;57445;51.058;3.698;2023-03-31T08:09:42;20.95;;;4.10;;
70073;SDS011;57445;51.058;3.698;2023-03-31T08:12:16;17.40;;;4.15;;
70073;SDS011;57445;51.058;3.698;2023-03-31T08:14:48;17.58;;;4.03;;
70073;SDS011;57445;51.058;3.698;2023-03-31T08:17:16;18.40;;;4.22;;
70073;SDS011;57445;51.058;3.698;2023-03-31T08:19:44;16.10;;;4.20;;
70073;SDS011;57445;51.058;3.698;2023-03-31T08:22:18;19.90;;;3.72;;
70073;SDS011;57445;51.058;3.698;2023-03-31T08:24:52;18.52;;;3.20;;
70073;SDS011;57445;51.058;3.698;2023-03-31T08:27:20;27.05;;;10.38;;
70073;SDS011;57445;51.058;3.698;2023-03-31T08:29:48;28.13;;;13.75;;
70073;SDS011;57445;51.058;3.698;2023-03-31T08:32:21;16.27;;;3.40;;
70073;SDS011;57445;51.058;3.698;2023-03-31T08:34:54;15.98;;;3.50;;
70073;SDS011;57445;51.058;3.698;2023-03-31T08:37:28;16.02;;;3.75;;
70073;SDS011;57445;51.058;3.698;2023-03-31T08:39:56;18.90;;;3.95;;
70073;SDS011;57445;51.058;3.698;2023-03-31T08:42:28;16.80;;;3.15;;
70073;SDS011;57445;51.058;3.698;2023-03-31T08:45:03;13.88;;;3.20;;
70073;SDS011;57445;51.058;3.698;2023-03-31T08:47:40;18.67;;;3.50;;
70073;SDS011;57445;51.058;3.698;2023-03-31T08:50:11;21.90;;;4.20;;
70073;SDS011;57445;51.058;3.698;2023-03-31T08:52:46;12.07;;;3.60;;
70073;SDS011;57445;51.058;3.698;2023-03-31T08:55:24;13.15;;;3.10;;
70073;SDS011;57445;51.058;3.698;2023-03-31T08:57:58;15.43;;;3.47;;
70073;SDS011;57445;51.058;3.698;2023-03-31T09:00:30;19.58;;;3.78;;
70073;SDS011;57445;51.058;3.698;2023-03-31T09:03:09;16.10;;;3.87;;
70073;SDS011;57445;51.058;3.698;2023-03-31T09:05:50;16.33;;;3.92;;
70073;SDS011;57445;51.058;3.698;2023-03-31T09:08:34;15.20;;;3.47;;
70073;SDS011;57445;51.058;3.698;2023-03-31T09:11:13;14.90;;;3.47;;
70073;SDS011;57445;51.058;3.698;2023-03-31T09:16:39;15.00;;;3.70;;
70073;SDS011;57445;51.058;3.698;2023-03-31T09:19:20;19.35;;;3.65;;
70073;SDS011;57445;51.058;3.698;2023-03-31T09:22:02;20.52;;;3.97;;
70073;SDS011;57445;51.058;3.698;2023-03-31T09:24:44;22.17;;;3.80;;
70073;SDS011;57445;51.058;3.698;2023-03-31T09:27:23;14.95;;;3.25;;
70073;SDS011;57445;51.058;3.698;2023-03-31T09:29:57;16.85;;;3.92;;
70073;SDS011;57445;51.058;3.698;2023-03-31T09:32:29;17.60;;;3.92;;
70073;SDS011;57445;51.058;3.698;2023-03-31T09:34:58;17.35;;;4.22;;
70073;SDS011;57445;51.058;3.698;2023-03-31T09:37:33;19.50;;;3.72;;
70073;SDS011;57445;51.058;3.698;2023-03-31T09:40:03;18.95;;;4.53;;
70073;SDS011;57445;51.058;3.698;2023-03-31T09:42:37;16.25;;;4.03;;
70073;SDS011;57445;51.058;3.698;2023-03-31T09:45:05;20.45;;;4.00;;
70073;SDS011;57445;51.058;3.698;2023-03-31T09:47:44;17.52;;;4.65;;
70073;SDS011;57445;51.058;3.698;2023-03-31T09:50:17;16.52;;;3.55;;
70073;SDS011;57445;51.058;3.698;2023-03-31T09:52:51;21.38;;;4.10;;
70073;SDS011;57445;51.058;3.698;2023-03-31T09:55:27;24.83;;;4.30;;
70073;SDS011;57445;51.058;3.698;2023-03-31T10:00:32;17.83;;;3.92;;
70073;SDS011;57445;51.058;3.698;2023-03-31T10:03:01;16.75;;;4.07;;
70073;SDS011;57445;51.058;3.698;2023-03-31T10:05:37;20.65;;;4.15;;
70073;SDS011;57445;51.058;3.698;2023-03-31T10:08:13;17.83;;;4.05;;
70073;SDS011;57445;51.058;3.698;2023-03-31T10:10:49;18.40;;;4.28;;
70073;SDS011;57445;51.058;3.698;2023-03-31T10:13:23;26.88;;;4.18;;
70073;SDS011;57445;51.058;3.698;2023-03-31T10:16:00;17.80;;;3.88;;
70073;SDS011;57445;51.058;3.698;2023-03-31T10:18:35;16.77;;;3.75;;
70073;SDS011;57445;51.058;3.698;2023-03-31T10:21:04;14.18;;;3.45;;
70073;SDS011;57445;51.058;3.698;2023-03-31T10:23:38;19.15;;;3.97;;
70073;SDS011;57445;51.058;3.698;2023-03-31T10:26:19;17.10;;;4.10;;
70073;SDS011;57445;51.058;3.698;2023-03-31T10:28:49;20.35;;;4.65;;
70073;SDS011;57445;51.058;3.698;2023-03-31T10:31:25;18.33;;;4.03;;
70073;SDS011;57445;51.058;3.698;2023-03-31T10:34:03;15.75;;;4.20;;
70073;SDS011;57445;51.058;3.698;2023-03-31T10:36:32;18.77;;;3.92;;
70073;SDS011;57445;51.058;3.698;2023-03-31T10:39:03;16.35;;;3.97;;
70073;SDS011;57445;51.058;3.698;2023-03-31T10:41:38;18.83;;;3.88;;
70073;SDS011;57445;51.058;3.698;2023-03-31T10:47:02;17.92;;;3.58;;
70073;SDS011;57445;51.058;3.698;2023-03-31T10:49:36;13.23;;;3.45;;
70073;SDS011;57445;51.058;3.698;2023-03-31T10:54:48;16.05;;;3.22;;
70073;SDS011;57445;51.058;3.698;2023-03-31T10:57:18;11.77;;;2.85;;
70073;SDS011;57445;51.058;3.698;2023-03-31T11:00:00;11.70;;;3.10;;
70073;SDS011;57445;51.058;3.698;2023-03-31T11:02:46;11.63;;;3.28;;
70073;SDS011;57445;51.058;3.698;2023-03-31T11:05:29;13.10;;;2.90;;
70073;SDS011;57445;51.058;3.698;2023-03-31T11:08:12;11.32;;;3.33;;
70073;SDS011;57445;51.058;3.698;2023-03-31T11:10:52;12.75;;;3.22;;
70073;SDS011;57445;51.058;3.698;2023-03-31T11:13:43;18.25;;;3.10;;
70073;SDS011;57445;51.058;3.698;2023-03-31T11:16:22;14.43;;;3.50;;
70073;SDS011;57445;51.058;3.698;2023-03-31T11:19:03;11.85;;;3.20;;
70073;SDS011;57445;51.058;3.698;2023-03-31T11:21:45;14.68;;;3.25;;
70073;SDS011;57445;51.058;3.698;2023-03-31T11:24:35;16.42;;;2.95;;
70073;SDS011;57445;51.058;3.698;2023-03-31T11:27:23;10.35;;;2.72;;
70073;SDS011;57445;51.058;3.698;2023-03-31T11:30:03;14.63;;;3.35;;
70073;SDS011;57445;51.058;3.698;2023-03-31T11:32:51;11.68;;;2.70;;
70073;SDS011;57445;51.058;3.698;2023-03-31T11:35:34;8.85;;;2.45;;
70073;SDS011;57445;51.058;3.698;2023-03-31T11:38:18;12.48;;;2.65;;
70073;SDS011;57445;51.058;3.698;2023-03-31T11:40:58;11.13;;;2.55;;
70073;SDS011;57445;51.058;3.698;2023-03-31T11:43:29;9.77;;;2.35;;
70073;SDS011;57445;51.058;3.698;2023-03-31T11:46:07;10.82;;;2.70;;
70073;SDS011;57445;51.058;3.698;2023-03-31T11:48:46;11.60;;;3.05;;
70073;SDS011;57445;51.058;3.698;2023-03-31T11:51:23;14.38;;;2.97;;
70073;SDS011;57445;51.058;3.698;2023-03-31T11:54:01;14.00;;;3.08;;
70073;SDS011;57445;51.058;3.698;2023-03-31T11:56:41;10.00;;;2.08;;
70073;SDS011;57445;51.058;3.698;2023-03-31T11:59:10;12.82;;;2.40;;
70073;SDS011;57445;51.058;3.698;2023-03-31T12:01:47;9.38;;;2.55;;
70073;SDS011;57445;51.058;3.698;2023-03-31T12:04:27;9.52;;;2.00;;
70073;SDS011;57445;51.058;3.698;2023-03-31T12:07:10;7.90;;;1.70;;
70073;SDS011;57445;51.058;3.698;2023-03-31T12:09:50;8.95;;;2.20;;
70073;SDS011;57445;51.058;3.698;2023-03-31T12:12:32;10.63;;;2.25;;
70073;SDS011;57445;51.058;3.698;2023-03-31T12:15:10;7.70;;;2.30;;
70073;SDS011;57445;51.058;3.698;2023-03-31T12:17:49;9.15;;;2.22;;
70073;SDS011;57445;51.058;3.698;2023-03-31T12:20:25;6.30;;;1.67;;
70073;SDS011;57445;51.058;3.698;2023-03-31T12:22:57;8.40;;;2.55;;
70073;SDS011;57445;51.058;3.698;2023-03-31T12:25:36;6.40;;;1.60;;
70073;SDS011;57445;51.058;3.698;2023-03-31T12:28:10;5.40;;;1.38;;
70073;SDS011;57445;51.058;3.698;2023-03-31T12:30:39;4.78;;;1.40;;
70073;SDS011;57445;51.058;3.698;2023-03-31T12:33:21;5.70;;;1.48;;
70073;SDS011;57445;51.058;3.698;2023-03-31T12:35:56;5.55;;;1.45;;
70073;SDS011;57445;51.058;3.698;2023-03-31T12:38:40;5.97;;;1.52;;
70073;SDS011;57445;51.058;3.698;2023-03-31T12:41:18;7.43;;;1.48;;
70073;SDS011;57445;51.058;3.698;2023-03-31T12:50:17;5.97;;;1.45;;
70073;SDS011;57445;51.058;3.698;2023-03-31T12:53:00;3.80;;;1.20;;
70073;SDS011;57445;51.058;3.698;2023-03-31T12:55:36;6.65;;;1.95;;
70073;SDS011;57445;51.058;3.698;2023-03-31T13:01:08;6.47;;;1.70;;
70073;SDS011;57445;51.058;3.698;2023-03-31T13:03:45;8.35;;;1.70;;
70073;SDS011;57445;51.058;3.698;2023-03-31T13:09:40;5.50;;;1.60;;
70073;SDS011;57445;51.058;3.698;2023-03-31T13:12:12;5.85;;;1.60;;
70073;SDS011;57445;51.058;3.698;2023-03-31T13:14:42;7.35;;;1.63;;
70073;SDS011;57445;51.058;3.698;2023-03-31T13:17:19;6.63;;;1.67;;
70073;SDS011;57445;51.058;3.698;2023-03-31T13:22:48;7.93;;;1.85;;
70073;SDS011;57445;51.058;3.698;2023-03-31T13:28:27;10.05;;;1.80;;
70073;SDS011;57445;51.058;3.698;2023-03-31T13:31:00;7.60;;;1.60;;
70073;SDS011;57445;51.058;3.698;2023-03-31T13:33:34;5.68;;;1.70;;
70073;SDS011;57445;51.058;3.698;2023-03-31T13:42:48;6.43;;;1.90;;
70073;SDS011;57445;51.058;3.698;2023-03-31T13:48:41;5.70;;;1.70;;
70073;SDS011;57445;51.058;3.698;2023-03-31T13:51:37;4.18;;;1.20;;
70073;SDS011;57445;51.058;3.698;2023-03-31T13:54:30;5.82;;;1.73;;
70073;SDS011;57445;51.058;3.698;2023-03-31T13:57:25;6.82;;;1.60;;
70073;SDS011;57445;51.058;3.698;2023-03-31T14:06:22;8.00;;;1.60;;
70073;SDS011;57445;51.058;3.698;2023-03-31T14:08:56;5.78;;;1.67;;
70073;SDS011;57445;51.058;3.698;2023-03-31T14:11:31;8.05;;;1.75;;
70073;SDS011;57445;51.058;3.698;2023-03-31T14:13:59;6.60;;;1.60;;
70073;SDS011;57445;51.058;3.698;2023-03-31T14:16:30;10.50;;;1.90;;
70073;SDS011;57445;51.058;3.698;2023-03-31T14:19:06;5.47;;;1.50;;
70073;SDS011;57445;51.058;3.698;2023-03-31T14:21:57;9.82;;;2.00;;
70073;SDS011;57445;51.058;3.698;2023-03-31T14:24:30;7.07;;;1.90;;
70073;SDS011;57445;51.058;3.698;2023-03-31T14:27:10;6.97;;;2.45;;
70073;SDS011;57445;51.058;3.698;2023-03-31T14:29:51;12.50;;;2.15;;
70073;SDS011;57445;51.058;3.698;2023-03-31T14:32:28;10.00;;;2.15;;
70073;SDS011;57445;51.058;3.698;2023-03-31T14:35:07;8.25;;;2.08;;
70073;SDS011;57445;51.058;3.698;2023-03-31T14:37:53;7.72;;;1.88;;
70073;SDS011;57445;51.058;3.698;2023-03-31T14:40:22;10.32;;;2.10;;
70073;SDS011;57445;51.058;3.698;2023-03-31T14:42:55;6.10;;;1.80;;
70073;SDS011;57445;51.058;3.698;2023-03-31T14:45:23;7.93;;;2.40;;
70073;SDS011;57445;51.058;3.698;2023-03-31T14:48:07;6.95;;;1.70;;
70073;SDS011;57445;51.058;3.698;2023-03-31T14:50:44;6.75;;;1.70;;
70073;SDS011;57445;51.058;3.698;2023-03-31T14:53:13;9.75;;;1.85;;
70073;SDS011;57445;51.058;3.698;2023-03-31T14:55:46;7.68;;;2.20;;
70073;SDS011;57445;51.058;3.698;2023-03-31T14:58:20;6.47;;;1.88;;
70073;SDS011;57445;51.058;3.698;2023-03-31T15:00:56;6.53;;;1.80;;
70073;SDS011;57445;51.058;3.698;2023-03-31T15:03:31;6.90;;;2.08;;
70073;SDS011;57445;51.058;3.698;2023-03-31T15:06:00;8.32;;;2.10;;
70073;SDS011;57445;51.058;3.698;2023-03-31T15:08:30;9.15;;;2.25;;
70073;SDS011;57445;51.058;3.698;2023-03-31T15:11:03;7.88;;;2.28;;
70073;SDS011;57445;51.058;3.698;2023-03-31T15:13:34;10.20;;;2.50;;
70073;SDS011;57445;51.058;3.698;2023-03-31T15:16:19;12.30;;;2.60;;
70073;SDS011;57445;51.058;3.698;2023-03-31T15:19:06;16.65;;;3.10;;
70073;SDS011;57445;51.058;3.698;2023-03-31T15:21:39;15.40;;;3.00;;
70073;SDS011;57445;51.058;3.698;2023-03-31T15:24:12;14.13;;;3.38;;
70073;SDS011;57445;51.058;3.698;2023-03-31T15:26:46;15.43;;;3.90;;
70073;SDS011;57445;51.058;3.698;2023-03-31T15:29:24;13.25;;;2.92;;
70073;SDS011;57445;51.058;3.698;2023-03-31T15:31:57;16.23;;;3.17;;
70073;SDS011;57445;51.058;3.698;2023-03-31T15:34:31;14.30;;;3.40;;
70073;SDS011;57445;51.058;3.698;2023-03-31T15:37:02;15.93;;;3.20;;
70073;SDS011;57445;51.058;3.698;2023-03-31T15:39:37;12.27;;;3.42;;
70073;SDS011;57445;51.058;3.698;2023-03-31T15:42:06;12.18;;;3.00;;
70073;SDS011;57445;51.058;3.698;2023-03-31T15:44:43;17.05;;;3.10;;
70073;SDS011;57445;51.058;3.698;2023-03-31T15:47:12;17.02;;;3.70;;
70073;SDS011;57445;51.058;3.698;2023-03-31T15:49:53;17.90;;;3.80;;
70073;SDS011;57445;51.058;3.698;2023-03-31T15:52:28;13.20;;;3.00;;
70073;SDS011;57445;51.058;3.698;2023-03-31T15:54:59;13.82;;;3.25;;
70073;SDS011;57445;51.058;3.698;2023-03-31T15:57:31;13.70;;;3.60;;
70073;SDS011;57445;51.058;3.698;2023-03-31T16:00:05;13.63;;;3.25;;
70073;SDS011;57445;51.058;3.698;2023-03-31T16:03:01;14.55;;;3.38;;
70073;SDS011;57445;51.058;3.698;2023-03-31T16:05:34;21.52;;;4.35;;
70073;SDS011;57445;51.058;3.698;2023-03-31T16:08:11;15.60;;;3.63;;
70073;SDS011;57445;51.058;3.698;2023-03-31T16:10:42;18.58;;;3.40;;
70073;SDS011;57445;51.058;3.698;2023-03-31T16:13:11;20.40;;;3.75;;